createdAt,value
2022-12-13T07:31:41.233Z,139792.69
2022-12-13T07:36:45.146Z,139688.66
2022-12-13T07:41:48.799Z,139725.38
2022-12-13T07:46:54.824Z,139618.94
2022-12-13T07:51:58.821Z,139697.22
2022-12-13T07:57:05.121Z,139773.13
2022-12-13T08:02:14.808Z,139474.63
2022-12-13T08:07:21.087Z,139769.41
2022-12-13T08:12:24.825Z,139752.31
2022-12-13T08:17:32.233Z,139753.53
2022-12-13T08:22:36.342Z,139743.69
2022-12-13T08:27:42.940Z,139676.44
2022-12-13T08:32:51.080Z,139527.22
2022-12-13T08:37:55.249Z,139796.34
2022-12-13T08:42:59.145Z,139814.75
2022-12-13T08:48:04.506Z,139835.56
2022-12-13T08:53:08.560Z,139746.19
2022-12-13T08:58:12.611Z,139541.88
2022-12-13T09:03:17.786Z,139831.91
2022-12-13T09:08:24.424Z,139808.63
2022-12-13T09:13:31.371Z,139698.44
2022-12-13T09:18:37.688Z,139879.63
2022-12-13T09:23:45.712Z,139793.91
2022-12-13T09:28:49.947Z,139846.56
2022-12-13T09:33:55.572Z,139894.34
2022-12-13T09:38:59.900Z,139885.78
2022-12-13T09:44:31.161Z,139736.38
2022-12-13T09:49:40.756Z,139733.94
2022-12-13T09:54:48.615Z,139708.22
2022-12-13T09:59:57.227Z,139888.22
2022-12-13T10:05:22.856Z,139858.84
2022-12-13T10:10:29.111Z,139649.53
2022-12-13T10:15:34.188Z,139942.09
2022-12-13T10:20:40.107Z,139973.94
2022-12-13T10:25:51.867Z,139905.34
2022-12-13T10:30:59.328Z,139986.19
2022-12-13T10:36:09.212Z,139986.19
2022-12-13T10:41:34.776Z,139797.56
2022-12-13T10:46:39.133Z,139943.31
2022-12-13T10:51:46.123Z,139518.63
2022-12-13T10:56:54.024Z,139724.16
2022-12-13T11:02:04.906Z,140045.00
2022-12-13T11:07:24.783Z,140046.22
2022-12-13T11:12:29.139Z,140054.84
2022-12-13T11:17:37.481Z,139913.97
2022-12-13T11:22:43.092Z,139922.53
2022-12-13T11:28:02.116Z,139986.19
2022-12-13T11:33:19.687Z,139896.78
2022-12-13T11:38:43.691Z,140000.91
2022-12-13T11:43:54.383Z,140035.22
2022-12-13T11:49:04.019Z,139533.31
2022-12-13T11:54:23.784Z,139836.78
2022-12-13T12:05:30.894Z,140073.19
2022-12-13T12:10:49.340Z,140073.19
2022-12-13T12:16:06.565Z,140038.88
2022-12-13T12:22:12.738Z,140046.22
2022-12-13T12:28:34.491Z,139584.69
2022-12-13T12:33:54.370Z,139795.13
2022-12-13T12:39:26.231Z,140056.06
2022-12-13T12:44:43.864Z,139660.53
2022-12-13T12:50:20.495Z,140029.09
2022-12-13T12:55:38.196Z,139592.03
2022-12-13T13:00:58.419Z,139922.53
2022-12-13T13:06:07.355Z,140069.53
2022-12-13T13:11:24.302Z,139563.88
2022-12-13T13:16:37.612Z,139722.94
2022-12-13T13:21:49.527Z,140211.69
2022-12-13T13:26:57.859Z,140221.53
2022-12-13T13:32:28.044Z,140228.88
2022-12-13T13:37:51.831Z,140216.59
2022-12-13T13:43:16.103Z,140127.13
2022-12-13T13:48:43.313Z,140090.38
2022-12-13T13:54:18.045Z,139693.59
2022-12-13T13:59:59.939Z,140020.47
2022-12-13T14:05:33.065Z,139829.44
2022-12-13T14:10:52.309Z,139999.69
2022-12-13T14:16:39.521Z,139847.78
2022-12-13T14:22:05.531Z,139993.50
2022-12-13T14:27:33.654Z,139977.59
2022-12-13T14:32:40.331Z,139915.19
2022-12-13T14:37:57.876Z,139950.66
2022-12-13T14:43:28.048Z,139959.22
2022-12-13T14:48:38.527Z,139298.63
2022-12-13T14:53:44.904Z,139607.94
2022-12-13T14:58:55.003Z,139844.13
2022-12-13T15:04:26.821Z,139895.56
2022-12-13T15:09:38.295Z,139708.22
2022-12-13T15:14:44.880Z,139883.28
2022-12-13T15:19:49.656Z,139926.19
2022-12-13T15:25:16.292Z,139920.06
2022-12-13T15:30:30.494Z,139921.31
2022-12-13T15:35:37.902Z,139874.75
2022-12-13T15:40:47.148Z,139915.19
2022-12-13T15:45:53.609Z,139902.91
2022-12-13T15:51:11.059Z,139675.22
2022-12-13T15:56:36.792Z,139279.09
2022-12-13T16:01:56.488Z,139347.50
2022-12-13T16:07:03.516Z,139860.06
2022-12-13T16:12:08.846Z,139905.34
2022-12-13T16:17:20.645Z,139782.91
2022-12-13T16:22:24.385Z,139687.44
2022-12-13T16:27:30.227Z,139790.25
2022-12-13T16:32:44.462Z,139818.41
2022-12-13T16:37:59.176Z,139658.09
2022-12-13T16:43:07.906Z,139559.00
2022-12-13T16:48:11.974Z,139704.56
2022-12-13T16:53:17.608Z,139685.00
2022-12-13T17:03:42.247Z,139653.19
2022-12-13T17:08:46.169Z,139603.03
2022-12-13T17:13:51.624Z,139631.16
2022-12-13T17:18:56.785Z,139502.75
2022-12-13T17:24:01.316Z,139582.25
2022-12-13T17:29:13.117Z,139536.97
2022-12-13T17:34:22.164Z,139469.75
2022-12-13T17:39:28.366Z,139452.66
2022-12-13T17:44:33.681Z,139302.31
2022-12-13T17:49:38.233Z,139435.50
2022-12-13T17:54:42.047Z,139286.44
2022-12-13T17:59:48.391Z,139332.88
2022-12-13T18:04:55.072Z,138733.75
2022-12-13T18:09:59.454Z,139177.75
2022-12-13T18:15:15.875Z,139124.03
2022-12-13T18:20:19.777Z,139230.28
2022-12-13T18:25:26.416Z,138926.38
2022-12-13T18:30:36.754Z,139277.88
2022-12-13T18:35:40.721Z,139271.75
2022-12-13T18:40:44.688Z,138864.16
2022-12-13T18:45:50.106Z,138745.97
2022-12-13T18:50:55.223Z,139238.81
2022-12-13T18:56:02.683Z,138980.06
2022-12-13T19:01:11.875Z,139220.53
2022-12-13T19:06:19.666Z,139135.03
2022-12-13T19:11:25.964Z,139100.81
2022-12-13T19:16:31.580Z,139132.56
2022-12-13T19:21:35.403Z,139190.00
2022-12-13T19:26:39.094Z,139182.63
2022-12-13T19:31:45.266Z,139164.34
2022-12-13T19:36:49.540Z,139136.25
2022-12-13T19:41:53.252Z,138994.72
2022-12-13T19:47:00.535Z,139117.94
2022-12-13T19:52:04.233Z,139105.75
2022-12-13T19:57:07.688Z,139104.47
2022-12-13T20:02:13.690Z,139099.59
2022-12-13T20:07:16.996Z,139072.75
2022-12-13T20:12:20.795Z,139071.53
2022-12-13T20:17:25.569Z,139071.53
2022-12-13T20:22:29.101Z,139071.53
2022-12-13T20:27:32.427Z,139065.44
2022-12-13T20:32:37.177Z,139054.47
2022-12-13T20:37:41.531Z,139048.31
2022-12-13T20:42:45.456Z,139017.88
2022-12-13T20:48:09.721Z,139013.00
2022-12-13T20:53:15.028Z,138989.78
2022-12-13T20:58:18.530Z,138976.41
2022-12-13T21:03:23.699Z,138986.13
2022-12-13T21:08:44.775Z,138973.97
2022-12-13T21:13:48.438Z,138952.00
2022-12-13T21:18:56.178Z,138958.06
2022-12-13T21:23:59.904Z,138954.41
2022-12-13T21:29:05.006Z,138956.88
2022-12-13T21:34:10.677Z,138947.13
2022-12-13T21:39:15.719Z,138934.91
2022-12-13T21:44:20.478Z,138926.38
2022-12-13T21:49:25.613Z,138922.72
2022-12-13T21:54:29.202Z,138893.44
2022-12-13T21:59:35.672Z,138905.63
2022-12-13T22:04:44.425Z,138898.31
2022-12-13T22:09:48.331Z,138904.41
2022-12-13T22:14:54.992Z,138898.31
2022-12-13T22:20:00.849Z,138909.28
2022-12-13T22:25:04.510Z,138906.84
2022-12-13T22:30:08.621Z,138869.03
2022-12-13T22:35:14.517Z,138858.09
2022-12-13T22:40:17.825Z,138847.06
